Time;durP1;ratioP1;P1;durP2;ratioP2;P2;SDS_P1;SDS_P2;PMS_P1;PMS_P2;Temp;Humidity;BMP_temperature;BMP_pressure;BME280_temperature;BME280_humidity;BME280_pressure;Samples;Min_cycle;Max_cycle;Signal;HPM_P1;HPM_P2
2023/05/15 00:01:26;;;;;;;;;;;20.80;55.50;;;;;;10285363;28;1536;-73
2023/05/15 00:06:22;;;;;;;;;;;20.80;56.10;;;;;;10285162;28;1208;-74
2023/05/15 00:11:17;;;;;;;;;;;20.80;55.50;;;;;;10284732;28;1914;-74
2023/05/15 00:16:12;;;;;;;;;;;20.90;55.50;;;;;;10284982;28;874;-74
2023/05/15 00:21:08;;;;;;;;;;;20.90;55.50;;;;;;10285485;28;876;-73
2023/05/15 00:26:03;;;;;;;;;;;20.80;55.40;;;;;;10284752;28;758;-74
2023/05/15 00:30:59;;;;;;;;;;;20.80;55.40;;;;;;10284763;28;1973;-74
2023/05/15 00:35:54;;;;;;;;;;;20.80;55.40;;;;;;10284658;28;873;-73
2023/05/15 00:40:49;;;;;;;;;;;20.80;55.40;;;;;;10284500;28;801;-74
2023/05/15 00:45:45;;;;;;;;;;;20.70;55.30;;;;;;10284378;28;797;-74
2023/05/15 00:50:40;;;;;;;;;;;20.80;55.40;;;;;;10284210;28;1973;-74
2023/05/15 00:55:36;;;;;;;;;;;20.80;55.40;;;;;;10285783;28;836;-74
2023/05/15 01:00:31;;;;;;;;;;;20.80;55.40;;;;;;10293268;28;820;-74
2023/05/15 01:05:27;;;;;;;;;;;20.80;55.40;;;;;;10292069;28;1140;-73
2023/05/15 01:10:22;;;;;;;;;;;20.80;55.40;;;;;;10291859;28;1918;-74
2023/05/15 01:15:18;;;;;;;;;;;20.80;55.40;;;;;;10291135;28;1244;-74
2023/05/15 01:20:13;;;;;;;;;;;20.80;55.40;;;;;;10291554;28;797;-73
2023/05/15 01:25:08;;;;;;;;;;;20.80;55.40;;;;;;10291597;28;908;-73
2023/05/15 01:30:04;;;;;;;;;;;20.80;55.40;;;;;;10291133;28;1902;-74
2023/05/15 01:34:59;;;;;;;;;;;20.80;55.40;;;;;;10290801;28;975;-74
2023/05/15 01:39:54;;;;;;;;;;;20.70;55.30;;;;;;10291406;28;849;-74
2023/05/15 01:44:50;;;;;;;;;;;20.70;55.20;;;;;;10291260;28;869;-74
2023/05/15 01:49:45;;;;;;;;;;;20.70;55.30;;;;;;10290401;28;1914;-73
2023/05/15 01:54:40;;;;;;;;;;;20.70;55.30;;;;;;10289622;28;829;-73
2023/05/15 01:59:36;;;;;;;;;;;20.70;55.20;;;;;;10291274;28;832;-74
2023/05/15 02:04:31;;;;;;;;;;;20.80;55.30;;;;;;10289705;28;1343;-73
2023/05/15 02:09:26;;;;;;;;;;;20.70;55.20;;;;;;10288671;28;1918;-74
2023/05/15 02:14:22;;;;;;;;;;;20.80;55.30;;;;;;10290342;28;805;-74
2023/05/15 02:19:17;;;;;;;;;;;20.70;55.20;;;;;;10290635;28;919;-74
2023/05/15 02:24:12;;;;;;;;;;;20.70;55.30;;;;;;10289654;28;854;-73
2023/05/15 02:29:08;;;;;;;;;;;20.70;55.40;;;;;;10289631;28;1902;-73
2023/05/15 02:34:03;;;;;;;;;;;20.70;56.30;;;;;;10288740;28;978;-73
2023/05/15 02:38:59;;;;;;;;;;;20.70;65.80;;;;;;10289169;28;763;-73
2023/05/15 02:43:54;;;;;;;;;;;20.70;72.30;;;;;;10289432;28;844;-74
2023/05/15 02:48:50;;;;;;;;;;;20.70;72.20;;;;;;10288153;28;1969;-74
2023/05/15 02:53:45;;;;;;;;;;;20.70;76.10;;;;;;10288598;28;915;-74
2023/05/15 02:58:41;;;;;;;;;;;20.70;75.60;;;;;;10287192;28;1213;-74
2023/05/15 03:03:36;;;;;;;;;;;20.70;69.50;;;;;;10288209;28;861;-73
2023/05/15 03:08:31;;;;;;;;;;;20.70;71.50;;;;;;10287774;28;1914;-74
2023/05/15 03:13:27;;;;;;;;;;;20.70;74.00;;;;;;10287321;28;904;-74
2023/05/15 03:18:22;;;;;;;;;;;20.60;73.50;;;;;;10286902;28;1060;-74
2023/05/15 03:23:17;;;;;;;;;;;20.60;75.00;;;;;;10287427;28;801;-73
2023/05/15 03:28:13;;;;;;;;;;;20.60;76.20;;;;;;10287184;28;1954;-73
2023/05/15 03:33:08;;;;;;;;;;;20.70;73.20;;;;;;10286482;28;900;-73
2023/05/15 03:38:03;;;;;;;;;;;20.60;72.80;;;;;;10286291;28;919;-74
2023/05/15 03:42:59;;;;;;;;;;;20.60;72.40;;;;;;10286105;28;865;-73
2023/05/15 03:47:54;;;;;;;;;;;20.70;71.40;;;;;;10286429;28;1961;-74
2023/05/15 03:52:49;;;;;;;;;;;20.70;71.80;;;;;;10286404;28;754;-74
2023/05/15 03:57:45;;;;;;;;;;;20.60;71.90;;;;;;10285627;28;805;-73
2023/05/15 04:02:41;;;;;;;;;;;20.60;72.00;;;;;;10285351;28;1168;-74
2023/05/15 04:07:36;;;;;;;;;;;20.60;71.20;;;;;;10285130;28;1949;-73
2023/05/15 04:12:32;;;;;;;;;;;20.60;71.30;;;;;;10284650;28;912;-73
2023/05/15 04:17:27;;;;;;;;;;;20.60;70.90;;;;;;10284994;28;780;-73
2023/05/15 04:22:22;;;;;;;;;;;20.60;71.50;;;;;;10285548;28;1009;-74
2023/05/15 04:27:18;;;;;;;;;;;20.60;70.40;;;;;;10284112;28;1983;-73
2023/05/15 04:32:13;;;;;;;;;;;20.60;69.20;;;;;;10284757;28;889;-74
2023/05/15 04:37:08;;;;;;;;;;;20.60;69.70;;;;;;10284117;28;912;-73
2023/05/15 04:42:04;;;;;;;;;;;20.60;70.60;;;;;;10285174;28;828;-74
2023/05/15 04:46:59;;;;;;;;;;;20.70;71.80;;;;;;10285108;28;1902;-74
2023/05/15 04:51:54;;;;;;;;;;;20.70;70.50;;;;;;10285405;28;881;-73
2023/05/15 04:56:50;;;;;;;;;;;20.70;70.30;;;;;;10284808;28;960;-73
2023/05/15 05:01:45;;;;;;;;;;;20.70;69.80;;;;;;10285532;28;862;-73
2023/05/15 05:06:41;;;;;;;;;;;20.70;68.60;;;;;;10284113;28;1386;-73
2023/05/15 05:11:38;;;;;;;;;;;20.60;68.50;;;;;;10283942;28;1981;-73
2023/05/15 05:16:33;;;;;;;;;;;20.70;66.90;;;;;;10284390;28;899;-74
2023/05/15 05:21:28;;;;;;;;;;;20.70;65.40;;;;;;10284289;28;834;-74
2023/05/15 05:26:24;;;;;;;;;;;20.70;65.80;;;;;;10283065;28;858;-73
2023/05/15 05:31:20;;;;;;;;;;;20.80;58.20;;;;;;10284095;28;1965;-73
2023/05/15 05:36:15;;;;;;;;;;;20.70;65.90;;;;;;10284188;28;839;-71
2023/05/15 05:41:11;;;;;;;;;;;20.70;67.70;;;;;;10283377;28;889;-73
2023/05/15 05:46:06;;;;;;;;;;;20.60;64.50;;;;;;10289603;28;831;-74
2023/05/15 05:51:01;;;;;;;;;;;20.60;64.20;;;;;;10290377;28;1910;-74
2023/05/15 05:55:57;;;;;;;;;;;20.70;63.90;;;;;;10290243;28;849;-74
2023/05/15 06:00:52;;;;;;;;;;;20.70;62.70;;;;;;10290757;28;865;-74
2023/05/15 06:05:47;;;;;;;;;;;20.60;63.80;;;;;;10289899;28;1129;-71
2023/05/15 06:10:43;;;;;;;;;;;20.60;64.80;;;;;;10290392;28;1910;-73
2023/05/15 06:15:38;;;;;;;;;;;20.60;63.70;;;;;;10290054;28;832;-73
2023/05/15 06:20:34;;;;;;;;;;;20.60;66.20;;;;;;10290567;28;841;-73
2023/05/15 06:25:29;;;;;;;;;;;20.50;64.10;;;;;;10289698;28;890;-73
2023/05/15 06:30:25;;;;;;;;;;;20.50;66.20;;;;;;10288422;28;1902;-74
2023/05/15 06:35:22;;;;;;;;;;;20.40;65.90;;;;;;10288806;28;758;-74
2023/05/15 06:40:18;;;;;;;;;;;20.50;65.00;;;;;;10288520;28;1045;-74
2023/05/15 06:45:13;;;;;;;;;;;20.50;65.50;;;;;;10288475;28;936;-68
2023/05/15 06:50:08;;;;;;;;;;;20.60;66.60;;;;;;10288105;28;1898;-65
2023/05/15 06:55:04;;;;;;;;;;;20.60;66.40;;;;;;10288209;28;786;-67
2023/05/15 06:59:59;;;;;;;;;;;20.50;68.60;;;;;;10287746;28;870;-68
2023/05/15 07:04:55;;;;;;;;;;;20.50;70.40;;;;;;10287928;28;1479;-68
2023/05/15 07:09:50;;;;;;;;;;;20.50;70.30;;;;;;10287378;28;1906;-68
2023/05/15 07:14:46;;;;;;;;;;;20.50;72.30;;;;;;10287216;28;786;-68
2023/05/15 07:19:41;;;;;;;;;;;20.50;72.30;;;;;;10287171;28;785;-68
2023/05/15 07:24:37;;;;;;;;;;;20.50;74.10;;;;;;10286832;28;946;-68
2023/05/15 07:29:33;;;;;;;;;;;20.50;73.80;;;;;;10287208;28;1898;-68
2023/05/15 07:34:28;;;;;;;;;;;20.50;73.60;;;;;;10286376;28;1119;-69
2023/05/15 07:39:23;;;;;;;;;;;20.50;74.40;;;;;;10286336;28;776;-66
2023/05/15 07:44:19;;;;;;;;;;;20.50;77.70;;;;;;10286120;28;863;-66
2023/05/15 07:49:14;;;;;;;;;;;20.50;76.30;;;;;;10285223;28;1898;-66
2023/05/15 07:54:10;;;;;;;;;;;20.50;76.50;;;;;;10285733;28;892;-67
2023/05/15 07:59:05;;;;;;;;;;;20.50;75.10;;;;;;10285598;28;816;-67
2023/05/15 08:04:00;;;;;;;;;;;20.60;76.70;;;;;;10285489;28;813;-67
2023/05/15 08:08:56;;;;;;;;;;;20.50;77.00;;;;;;10285203;28;1961;-67
2023/05/15 08:13:51;;;;;;;;;;;20.60;73.10;;;;;;10285902;28;849;-69
2023/05/15 08:18:46;;;;;;;;;;;20.60;69.90;;;;;;10284558;28;1076;-67
2023/05/15 08:23:42;;;;;;;;;;;20.50;72.40;;;;;;10284876;28;1429;-67
2023/05/15 08:28:37;;;;;;;;;;;20.60;73.90;;;;;;10285559;28;1891;-68
2023/05/15 08:33:32;;;;;;;;;;;20.50;70.20;;;;;;10284701;28;998;-67
2023/05/15 08:38:28;;;;;;;;;;;20.50;67.20;;;;;;10285178;28;762;-73
2023/05/15 08:43:23;;;;;;;;;;;20.50;70.30;;;;;;10284494;28;988;-73
2023/05/15 08:48:20;;;;;;;;;;;20.50;71.00;;;;;;10284986;28;1902;-73
2023/05/15 08:53:15;;;;;;;;;;;20.50;72.80;;;;;;10284683;28;864;-73
2023/05/15 08:58:11;;;;;;;;;;;20.60;74.00;;;;;;10284793;28;809;-73
2023/05/15 09:03:06;;;;;;;;;;;20.60;75.40;;;;;;10284681;28;829;-73
2023/05/15 09:08:01;;;;;;;;;;;20.60;78.50;;;;;;10284598;28;1977;-73
2023/05/15 09:12:59;;;;;;;;;;;20.50;86.60;;;;;;10283937;28;964;-73
2023/05/15 09:17:55;;;;;;;;;;;20.50;83.70;;;;;;10286426;28;770;-73
2023/05/15 09:22:50;;;;;;;;;;;21.30;96.00;;;;;;10291031;28;857;-73
2023/05/15 09:27:46;;;;;;;;;;;20.60;55.10;;;;;;10291229;28;1898;-73
2023/05/15 09:32:41;;;;;;;;;;;20.60;55.20;;;;;;10291803;28;742;-73
2023/05/15 09:37:36;;;;;;;;;;;20.60;55.20;;;;;;10291005;28;904;-73
2023/05/15 09:42:32;;;;;;;;;;;20.50;55.10;;;;;;10292040;28;841;-73
2023/05/15 09:47:27;;;;;;;;;;;20.50;55.10;;;;;;10290583;28;1967;-73
2023/05/15 09:52:23;;;;;;;;;;;20.50;55.10;;;;;;10290363;28;960;-73
2023/05/15 09:57:18;;;;;;;;;;;20.60;55.10;;;;;;10290236;28;872;-73
2023/05/15 10:02:14;;;;;;;;;;;20.60;55.10;;;;;;10290722;28;861;-73
2023/05/15 10:07:09;;;;;;;;;;;20.60;55.10;;;;;;10290613;28;1954;-73
2023/05/15 10:12:08;;;;;;;;;;;20.60;55.10;;;;;;10290490;28;869;-73
2023/05/15 10:17:03;;;;;;;;;;;20.50;55.10;;;;;;10289582;28;868;-73
2023/05/15 10:21:59;;;;;;;;;;;20.50;55.00;;;;;;10289968;28;800;-73
2023/05/15 10:26:54;;;;;;;;;;;20.60;55.00;;;;;;10288990;28;886;-72
2023/05/15 10:31:50;;;;;;;;;;;20.60;55.00;;;;;;10288973;28;1975;-71
2023/05/15 10:36:46;;;;;;;;;;;20.60;55.10;;;;;;10289054;28;977;-70
2023/05/15 10:41:41;;;;;;;;;;;20.60;55.00;;;;;;10288633;28;962;-72
2023/05/15 10:46:36;;;;;;;;;;;20.60;55.00;;;;;;10288514;28;884;-72
2023/05/15 10:51:32;;;;;;;;;;;20.50;55.10;;;;;;10287569;28;1969;-68
2023/05/15 10:56:27;;;;;;;;;;;20.50;55.10;;;;;;10288078;28;864;-68
2023/05/15 11:01:23;;;;;;;;;;;20.60;55.10;;;;;;10288420;28;833;-68
2023/05/15 11:06:18;;;;;;;;;;;20.60;55.10;;;;;;10288765;28;1161;-68
2023/05/15 11:11:13;;;;;;;;;;;20.60;55.20;;;;;;10288096;28;1995;-68
2023/05/15 11:16:09;;;;;;;;;;;20.60;55.20;;;;;;10287259;28;781;-68
2023/05/15 11:21:04;;;;;;;;;;;20.70;55.20;;;;;;10287020;28;930;-68
2023/05/15 11:26:02;;;;;;;;;;;20.70;55.30;;;;;;10287415;28;773;-68
2023/05/15 11:30:57;;;;;;;;;;;20.70;55.40;;;;;;10286519;28;1910;-68
2023/05/15 11:35:53;;;;;;;;;;;20.60;55.50;;;;;;10286501;28;766;-68
2023/05/15 11:40:48;;;;;;;;;;;20.60;55.50;;;;;;10286945;28;892;-68
2023/05/15 11:45:44;;;;;;;;;;;20.70;55.70;;;;;;10286857;28;916;-68
2023/05/15 11:50:40;;;;;;;;;;;20.70;55.70;;;;;;10286604;28;1965;-68
2023/05/15 11:55:35;;;;;;;;;;;20.60;55.60;;;;;;10285707;28;824;-68
2023/05/15 12:00:30;;;;;;;;;;;20.60;55.70;;;;;;10286312;28;821;-68
2023/05/15 12:05:26;;;;;;;;;;;20.60;55.60;;;;;;10285115;28;1234;-68
2023/05/15 12:10:21;;;;;;;;;;;20.60;56.30;;;;;;10284599;28;1914;-66
2023/05/15 12:15:16;;;;;;;;;;;20.60;55.70;;;;;;10285877;28;868;-68
2023/05/15 12:20:13;;;;;;;;;;;20.50;55.70;;;;;;10284992;28;1126;-68
2023/05/15 12:25:10;;;;;;;;;;;20.50;55.90;;;;;;10284845;28;913;-68
2023/05/15 12:30:05;;;;;;;;;;;20.50;55.70;;;;;;10284921;28;1915;-68
2023/05/15 12:35:00;;;;;;;;;;;20.50;55.50;;;;;;10285356;28;821;-69
2023/05/15 12:39:56;;;;;;;;;;;20.50;55.60;;;;;;10284048;28;895;-70
2023/05/15 12:44:52;;;;;;;;;;;20.50;55.60;;;;;;10284499;28;781;-69
2023/05/15 12:49:47;;;;;;;;;;;20.50;55.50;;;;;;10284882;28;1967;-68
2023/05/15 12:54:43;;;;;;;;;;;20.50;55.50;;;;;;10289529;28;991;-68
2023/05/15 12:59:39;;;;;;;;;;;20.50;55.50;;;;;;10292229;28;889;-67
2023/05/15 13:04:34;;;;;;;;;;;20.40;55.40;;;;;;10291814;28;1133;-67
2023/05/15 13:09:29;;;;;;;;;;;20.40;55.40;;;;;;10291924;28;1906;-67
2023/05/15 13:14:27;;;;;;;;;;;20.40;55.10;;;;;;10291659;28;1039;-67
2023/05/15 13:19:23;;;;;;;;;;;20.50;55.00;;;;;;10292037;28;829;-68
2023/05/15 13:24:18;;;;;;;;;;;20.50;54.30;;;;;;10291899;28;816;-68
2023/05/15 13:29:14;;;;;;;;;;;20.50;54.40;;;;;;10291136;28;1910;-68
2023/05/15 13:34:09;;;;;;;;;;;20.60;54.30;;;;;;10291707;28;1553;-68
2023/05/15 13:39:05;;;;;;;;;;;20.60;54.20;;;;;;10291428;28;1011;-68
2023/05/15 13:44:00;;;;;;;;;;;20.60;55.00;;;;;;10290583;28;788;-67
2023/05/15 13:48:56;;;;;;;;;;;20.60;54.60;;;;;;10290385;28;1961;-67
2023/05/15 13:53:51;;;;;;;;;;;20.70;56.50;;;;;;10290257;28;794;-68
2023/05/15 13:58:46;;;;;;;;;;;20.60;57.20;;;;;;10290699;28;884;-68
2023/05/15 14:03:42;;;;;;;;;;;20.70;57.80;;;;;;10288830;28;808;-67
2023/05/15 14:08:37;;;;;;;;;;;20.70;58.30;;;;;;10290388;28;1956;-68
2023/05/15 14:13:33;;;;;;;;;;;20.70;58.40;;;;;;10289745;28;950;-68
2023/05/15 14:18:28;;;;;;;;;;;20.70;58.30;;;;;;10290180;28;812;-69
2023/05/15 14:23:23;;;;;;;;;;;20.70;58.60;;;;;;10290557;28;864;-68
2023/05/15 14:28:19;;;;;;;;;;;20.70;58.90;;;;;;10289719;28;1957;-67
2023/05/15 14:33:14;;;;;;;;;;;20.80;59.10;;;;;;10289684;28;813;-68
2023/05/15 14:38:10;;;;;;;;;;;20.70;59.40;;;;;;10289375;28;873;-69
2023/05/15 14:43:06;;;;;;;;;;;20.80;59.30;;;;;;10288582;28;952;-68
2023/05/15 14:48:01;;;;;;;;;;;20.80;59.70;;;;;;10288347;28;1922;-68
2023/05/15 14:52:56;;;;;;;;;;;20.80;59.80;;;;;;10288183;28;772;-68
2023/05/15 14:57:52;;;;;;;;;;;20.80;59.90;;;;;;10288633;28;1106;-69
2023/05/15 15:02:47;;;;;;;;;;;20.80;60.00;;;;;;10287052;28;876;-68
2023/05/15 15:07:43;;;;;;;;;;;20.70;60.00;;;;;;10287684;28;1910;-68
2023/05/15 15:12:38;;;;;;;;;;;20.70;60.00;;;;;;10286671;28;868;-68
2023/05/15 15:17:33;;;;;;;;;;;20.70;60.40;;;;;;10286598;28;860;-68
2023/05/15 15:22:29;;;;;;;;;;;20.70;60.50;;;;;;10286822;28;810;-68
2023/05/15 15:27:24;;;;;;;;;;;20.70;60.60;;;;;;10287163;28;1902;-68
2023/05/15 15:32:19;;;;;;;;;;;20.70;60.40;;;;;;10286404;28;761;-69
2023/05/15 15:37:15;;;;;;;;;;;20.80;60.30;;;;;;10287501;28;861;-68
2023/05/15 15:42:10;;;;;;;;;;;20.80;60.60;;;;;;10286017;28;961;-68
2023/05/15 15:47:05;;;;;;;;;;;20.80;60.10;;;;;;10285962;28;825;-68
2023/05/15 15:52:01;;;;;;;;;;;20.80;60.70;;;;;;10285619;28;1968;-68
2023/05/15 15:56:56;;;;;;;;;;;20.80;61.00;;;;;;10285529;28;975;-69
2023/05/15 16:01:51;;;;;;;;;;;20.80;61.10;;;;;;10286015;28;990;-69
2023/05/15 16:06:47;;;;;;;;;;;20.80;61.50;;;;;;10284718;28;1307;-69
2023/05/15 16:11:42;;;;;;;;;;;20.80;61.80;;;;;;10285195;28;1914;-68
2023/05/15 16:16:38;;;;;;;;;;;20.80;61.80;;;;;;10284315;28;863;-68
2023/05/15 16:21:35;;;;;;;;;;;20.70;61.90;;;;;;10284855;28;766;-67
2023/05/15 16:26:30;;;;;;;;;;;20.70;62.10;;;;;;10284534;28;832;-68
2023/05/15 16:31:25;;;;;;;;;;;20.70;62.30;;;;;;10283838;28;1906;-67
2023/05/15 16:36:21;;;;;;;;;;;20.70;62.30;;;;;;10284822;28;885;-69
2023/05/15 16:41:16;;;;;;;;;;;20.70;62.80;;;;;;10284638;28;891;-68
2023/05/15 16:46:11;;;;;;;;;;;20.70;63.00;;;;;;10285122;28;968;-66
2023/05/15 16:51:07;;;;;;;;;;;20.70;63.60;;;;;;10283763;28;1963;-69
2023/05/15 16:56:03;;;;;;;;;;;20.70;63.80;;;;;;10284323;28;840;-68
2023/05/15 17:00:58;;;;;;;;;;;20.70;64.00;;;;;;10284281;28;1277;-68
2023/05/15 17:05:54;;;;;;;;;;;20.70;64.20;;;;;;10283332;28;1472;-68
2023/05/15 17:10:49;;;;;;;;;;;20.70;64.50;;;;;;10284597;28;2024;-68
2023/05/15 17:15:46;;;;;;;;;;;20.70;65.00;;;;;;10283928;28;840;-68
2023/05/15 17:20:41;;;;;;;;;;;20.70;65.30;;;;;;10283793;28;802;-68
2023/05/15 17:25:36;;;;;;;;;;;20.60;66.60;;;;;;10283815;28;766;-68
2023/05/15 17:30:32;;;;;;;;;;;20.70;66.10;;;;;;10283488;28;1965;-68
2023/05/15 17:35:27;;;;;;;;;;;20.70;66.50;;;;;;10283626;28;863;-68
2023/05/15 17:40:22;;;;;;;;;;;20.70;66.80;;;;;;10288489;28;857;-68
2023/05/15 17:45:18;;;;;;;;;;;20.70;67.10;;;;;;10291738;28;960;-68
2023/05/15 17:50:13;;;;;;;;;;;20.70;67.10;;;;;;10291267;28;1906;-68
2023/05/15 17:55:08;;;;;;;;;;;20.70;66.80;;;;;;10290519;28;838;-68
2023/05/15 18:00:05;;;;;;;;;;;20.70;66.80;;;;;;10290282;28;953;-68
2023/05/15 18:05:01;;;;;;;;;;;20.60;66.90;;;;;;10289964;28;1133;-69
2023/05/15 18:09:56;;;;;;;;;;;20.70;67.00;;;;;;10290263;28;1910;-68
2023/05/15 18:14:52;;;;;;;;;;;20.70;67.40;;;;;;10289786;28;781;-68
2023/05/15 18:19:48;;;;;;;;;;;20.70;67.40;;;;;;10289585;28;821;-68
2023/05/15 18:24:43;;;;;;;;;;;20.60;67.50;;;;;;10289386;28;893;-68
2023/05/15 18:29:38;;;;;;;;;;;20.70;67.80;;;;;;10288629;28;1906;-69
2023/05/15 18:34:34;;;;;;;;;;;20.70;68.10;;;;;;10289735;28;861;-68
2023/05/15 18:39:29;;;;;;;;;;;20.60;67.90;;;;;;10289438;28;877;-68
2023/05/15 18:44:25;;;;;;;;;;;20.60;67.80;;;;;;10288568;28;866;-68
2023/05/15 18:49:20;;;;;;;;;;;20.60;68.20;;;;;;10287673;28;1902;-68
2023/05/15 18:54:16;;;;;;;;;;;20.60;68.50;;;;;;10288304;28;777;-68
2023/05/15 18:59:11;;;;;;;;;;;20.60;69.00;;;;;;10288219;28;862;-68
2023/05/15 19:04:06;;;;;;;;;;;20.70;69.30;;;;;;10288537;28;963;-68
2023/05/15 19:09:02;;;;;;;;;;;20.60;69.00;;;;;;10287754;28;1989;-68
2023/05/15 19:13:58;;;;;;;;;;;20.70;69.20;;;;;;10286867;28;912;-67
2023/05/15 19:18:53;;;;;;;;;;;20.60;70.60;;;;;;10287286;28;782;-67
2023/05/15 19:23:49;;;;;;;;;;;20.60;70.30;;;;;;10287216;28;791;-67
2023/05/15 19:28:44;;;;;;;;;;;20.60;70.40;;;;;;10288161;28;1919;-67
2023/05/15 19:33:40;;;;;;;;;;;20.60;70.50;;;;;;10286761;28;772;-69
2023/05/15 19:38:35;;;;;;;;;;;20.70;71.10;;;;;;10286568;28;956;-67
2023/05/15 19:43:35;;;;;;;;;;;20.60;71.30;;;;;;10286484;28;861;-67
2023/05/15 19:48:30;;;;;;;;;;;20.60;72.10;;;;;;10286054;28;2032;-72
2023/05/15 19:53:25;;;;;;;;;;;20.60;73.00;;;;;;10285908;28;850;-72
2023/05/15 19:58:23;;;;;;;;;;;;;;;;;;10285274;28;939;-71
2023/05/15 20:03:19;;;;;;;;;;;20.60;52.80;;;;;;10284781;28;805;-71
2023/05/15 20:08:15;;;;;;;;;;;20.60;53.30;;;;;;10286294;28;1979;-68
2023/05/15 20:13:11;;;;;;;;;;;20.60;53.30;;;;;;10284703;28;877;-72
2023/05/15 20:18:06;;;;;;;;;;;20.60;53.20;;;;;;10286453;28;873;-72
2023/05/15 20:23:02;;;;;;;;;;;20.60;53.90;;;;;;10285630;28;774;-71
2023/05/15 20:27:57;;;;;;;;;;;20.60;53.30;;;;;;10284807;28;1906;-72
2023/05/15 20:32:53;;;;;;;;;;;20.60;53.30;;;;;;10285458;28;849;-71
2023/05/15 20:37:48;;;;;;;;;;;20.60;53.30;;;;;;10285319;28;813;-71
2023/05/15 20:42:43;;;;;;;;;;;20.60;53.40;;;;;;10284183;28;946;-71
2023/05/15 20:47:39;;;;;;;;;;;20.50;53.40;;;;;;10283888;28;1910;-71
2023/05/15 20:52:34;;;;;;;;;;;20.50;53.30;;;;;;10284440;28;958;-72
2023/05/15 20:57:29;;;;;;;;;;;20.60;53.30;;;;;;10284356;28;803;-71
2023/05/15 21:02:25;;;;;;;;;;;20.60;53.30;;;;;;10284350;28;889;-71
2023/05/15 21:07:20;;;;;;;;;;;20.60;53.40;;;;;;10283857;28;1245;-71
2023/05/15 21:12:15;;;;;;;;;;;20.60;53.30;;;;;;10283392;28;1894;-71
2023/05/15 21:17:11;;;;;;;;;;;20.60;53.40;;;;;;10292647;28;848;-71
2023/05/15 21:22:07;;;;;;;;;;;20.60;53.40;;;;;;10292317;28;937;-71
2023/05/15 21:27:02;;;;;;;;;;;20.60;53.40;;;;;;10292331;28;774;-71
2023/05/15 21:31:58;;;;;;;;;;;20.60;53.40;;;;;;10291405;28;1958;-71
2023/05/15 21:36:53;;;;;;;;;;;20.60;53.40;;;;;;10291258;28;909;-71
2023/05/15 21:41:49;;;;;;;;;;;20.60;53.40;;;;;;10291424;28;857;-71
2023/05/15 21:46:45;;;;;;;;;;;20.60;53.50;;;;;;10291489;28;957;-71
2023/05/15 21:51:40;;;;;;;;;;;20.60;53.40;;;;;;10291195;28;1956;-72
2023/05/15 21:56:36;;;;;;;;;;;20.60;53.40;;;;;;10290521;28;928;-71
2023/05/15 22:01:31;;;;;;;;;;;20.60;53.40;;;;;;10290306;28;878;-71
2023/05/15 22:06:26;;;;;;;;;;;20.60;53.40;;;;;;10290522;28;1105;-71
2023/05/15 22:11:22;;;;;;;;;;;20.60;53.40;;;;;;10289993;28;1972;-71
2023/05/15 22:16:18;;;;;;;;;;;20.60;53.50;;;;;;10289760;28;793;-71
2023/05/15 22:21:13;;;;;;;;;;;20.60;53.50;;;;;;10290410;28;821;-71
2023/05/15 22:26:08;;;;;;;;;;;20.60;53.50;;;;;;10288332;28;888;-71
2023/05/15 22:31:04;;;;;;;;;;;20.60;53.50;;;;;;10289140;28;1890;-71
2023/05/15 22:35:59;;;;;;;;;;;20.60;53.50;;;;;;10288726;28;949;-71
2023/05/15 22:40:55;;;;;;;;;;;20.60;53.50;;;;;;10289123;28;921;-71
2023/05/15 22:45:51;;;;;;;;;;;20.60;53.50;;;;;;10288658;28;788;-71
2023/05/15 22:50:46;;;;;;;;;;;20.60;53.50;;;;;;10289248;28;1949;-71
2023/05/15 22:55:41;;;;;;;;;;;20.60;54.10;;;;;;10288882;28;833;-71
2023/05/15 23:00:37;;;;;;;;;;;20.50;53.50;;;;;;10288653;28;770;-71
2023/05/15 23:05:32;;;;;;;;;;;20.60;53.60;;;;;;10287708;28;1149;-71
2023/05/15 23:10:28;;;;;;;;;;;20.50;53.50;;;;;;10287629;28;1918;-71
2023/05/15 23:15:23;;;;;;;;;;;20.50;53.60;;;;;;10287425;28;850;-71
2023/05/15 23:20:18;;;;;;;;;;;20.50;53.50;;;;;;10287926;28;970;-71
2023/05/15 23:25:14;;;;;;;;;;;20.50;53.60;;;;;;10287148;28;939;-71
2023/05/15 23:30:09;;;;;;;;;;;20.50;53.60;;;;;;10287371;28;1953;-71
2023/05/15 23:35:05;;;;;;;;;;;20.50;53.60;;;;;;10287588;28;872;-71
2023/05/15 23:40:00;;;;;;;;;;;20.50;53.60;;;;;;10286373;28;865;-71
2023/05/15 23:44:56;;;;;;;;;;;20.50;53.50;;;;;;10286521;28;1599;-71
2023/05/15 23:49:51;;;;;;;;;;;20.50;53.60;;;;;;10285456;28;1902;-71
2023/05/15 23:54:46;;;;;;;;;;;20.50;53.50;;;;;;10285994;28;920;-71
2023/05/15 23:59:42;;;;;;;;;;;20.60;53.60;;;;;;10285750;28;868;-71
